sensor_id;sensor_type;location;lat;lon;timestamp;temperature;humidity
9414;DHT22;4746;35.664;139.738;2022-12-26T00:01:20;6.80;49.10
9414;DHT22;4746;35.664;139.738;2022-12-26T00:03:49;6.90;49.70
9414;DHT22;4746;35.664;139.738;2022-12-26T00:06:20;7.00;48.10
9414;DHT22;4746;35.664;139.738;2022-12-26T00:08:52;7.10;45.90
9414;DHT22;4746;35.664;139.738;2022-12-26T00:11:21;7.20;45.30
9414;DHT22;4746;35.664;139.738;2022-12-26T00:14:02;7.30;45.20
9414;DHT22;4746;35.664;139.738;2022-12-26T00:16:33;7.40;43.20
9414;DHT22;4746;35.664;139.738;2022-12-26T00:19:02;7.50;42.60
9414;DHT22;4746;35.664;139.738;2022-12-26T00:21:30;7.50;42.30
9414;DHT22;4746;35.664;139.738;2022-12-26T00:23:59;7.50;40.80
9414;DHT22;4746;35.664;139.738;2022-12-26T00:26:29;7.60;40.90
9414;DHT22;4746;35.664;139.738;2022-12-26T00:28:58;7.60;40.30
9414;DHT22;4746;35.664;139.738;2022-12-26T00:31:28;7.60;40.40
9414;DHT22;4746;35.664;139.738;2022-12-26T00:33:59;7.70;40.30
9414;DHT22;4746;35.664;139.738;2022-12-26T00:36:29;7.70;39.80
9414;DHT22;4746;35.664;139.738;2022-12-26T00:39:00;7.70;39.70
9414;DHT22;4746;35.664;139.738;2022-12-26T00:41:30;7.70;38.90
9414;DHT22;4746;35.664;139.738;2022-12-26T00:43:58;7.80;39.00
9414;DHT22;4746;35.664;139.738;2022-12-26T00:46:26;7.90;38.70
9414;DHT22;4746;35.664;139.738;2022-12-26T00:48:54;7.90;38.60
9414;DHT22;4746;35.664;139.738;2022-12-26T00:51:21;7.90;37.90
9414;DHT22;4746;35.664;139.738;2022-12-26T00:53:49;8.00;38.00
9414;DHT22;4746;35.664;139.738;2022-12-26T00:56:16;8.00;37.40
9414;DHT22;4746;35.664;139.738;2022-12-26T00:58:44;8.00;37.30
9414;DHT22;4746;35.664;139.738;2022-12-26T01:01:17;8.10;37.20
9414;DHT22;4746;35.664;139.738;2022-12-26T01:03:47;8.10;36.70
9414;DHT22;4746;35.664;139.738;2022-12-26T01:06:16;8.10;37.40
9414;DHT22;4746;35.664;139.738;2022-12-26T01:08:44;8.20;37.80
9414;DHT22;4746;35.664;139.738;2022-12-26T01:11:14;8.20;36.50
9414;DHT22;4746;35.664;139.738;2022-12-26T01:14:02;8.20;36.30
9414;DHT22;4746;35.664;139.738;2022-12-26T01:16:31;8.20;36.50
9414;DHT22;4746;35.664;139.738;2022-12-26T01:18:58;8.30;36.40
9414;DHT22;4746;35.664;139.738;2022-12-26T01:21:26;8.30;36.40
9414;DHT22;4746;35.664;139.738;2022-12-26T01:23:54;8.30;36.10
9414;DHT22;4746;35.664;139.738;2022-12-26T01:26:21;8.40;36.50
9414;DHT22;4746;35.664;139.738;2022-12-26T01:28:50;8.40;36.20
9414;DHT22;4746;35.664;139.738;2022-12-26T01:31:20;8.40;35.50
9414;DHT22;4746;35.664;139.738;2022-12-26T01:33:48;8.40;35.20
9414;DHT22;4746;35.664;139.738;2022-12-26T01:36:17;8.40;35.70
9414;DHT22;4746;35.664;139.738;2022-12-26T01:38:45;8.50;36.10
9414;DHT22;4746;35.664;139.738;2022-12-26T01:41:13;8.50;35.80
9414;DHT22;4746;35.664;139.738;2022-12-26T01:49:14;8.70;35.80
9414;DHT22;4746;35.664;139.738;2022-12-26T01:51:52;8.70;35.90
9414;DHT22;4746;35.664;139.738;2022-12-26T01:54:36;8.80;35.40
9414;DHT22;4746;35.664;139.738;2022-12-26T01:57:11;8.80;34.80
9414;DHT22;4746;35.664;139.738;2022-12-26T01:59:43;8.80;34.60
9414;DHT22;4746;35.664;139.738;2022-12-26T02:02:12;9.00;35.00
9414;DHT22;4746;35.664;139.738;2022-12-26T02:04:45;9.10;35.50
9414;DHT22;4746;35.664;139.738;2022-12-26T02:07:38;9.10;35.30
9414;DHT22;4746;35.664;139.738;2022-12-26T02:10:16;9.20;35.40
9414;DHT22;4746;35.664;139.738;2022-12-26T02:12:50;9.30;35.30
9414;DHT22;4746;35.664;139.738;2022-12-26T02:15:18;9.30;34.90
9414;DHT22;4746;35.664;139.738;2022-12-26T02:17:46;9.40;34.20
9414;DHT22;4746;35.664;139.738;2022-12-26T02:20:23;9.50;34.30
9414;DHT22;4746;35.664;139.738;2022-12-26T02:26:41;9.70;34.20
9414;DHT22;4746;35.664;139.738;2022-12-26T02:29:43;9.80;34.10
9414;DHT22;4746;35.664;139.738;2022-12-26T02:35:42;10.10;31.00
9414;DHT22;4746;35.664;139.738;2022-12-26T02:38:47;10.20;30.40
9414;DHT22;4746;35.664;139.738;2022-12-26T02:44:21;10.30;29.50
9414;DHT22;4746;35.664;139.738;2022-12-26T02:47:27;10.20;29.20
9414;DHT22;4746;35.664;139.738;2022-12-26T02:53:17;10.30;28.40
9414;DHT22;4746;35.664;139.738;2022-12-26T02:56:19;10.30;28.10
9414;DHT22;4746;35.664;139.738;2022-12-26T02:59:22;10.30;28.00
9414;DHT22;4746;35.664;139.738;2022-12-26T03:09:11;10.60;28.40
9414;DHT22;4746;35.664;139.738;2022-12-26T03:15:12;10.60;27.90
9414;DHT22;4746;35.664;139.738;2022-12-26T03:17:57;10.70;28.20
9414;DHT22;4746;35.664;139.738;2022-12-26T03:20:35;10.90;28.40
9414;DHT22;4746;35.664;139.738;2022-12-26T03:23:13;11.00;28.60
9414;DHT22;4746;35.664;139.738;2022-12-26T03:25:58;11.10;28.40
9414;DHT22;4746;35.664;139.738;2022-12-26T03:28:49;11.20;28.20
9414;DHT22;4746;35.664;139.738;2022-12-26T03:31:17;11.30;28.30
9414;DHT22;4746;35.664;139.738;2022-12-26T03:33:46;11.30;28.40
9414;DHT22;4746;35.664;139.738;2022-12-26T03:46:44;11.80;29.00
9414;DHT22;4746;35.664;139.738;2022-12-26T03:49:51;12.00;29.10
9414;DHT22;4746;35.664;139.738;2022-12-26T03:53:30;12.10;28.30
9414;DHT22;4746;35.664;139.738;2022-12-26T03:56:15;12.30;28.60
9414;DHT22;4746;35.664;139.738;2022-12-26T03:59:29;12.60;28.50
9414;DHT22;4746;35.664;139.738;2022-12-26T04:02:25;12.50;27.00
9414;DHT22;4746;35.664;139.738;2022-12-26T04:05:15;12.60;26.20
9414;DHT22;4746;35.664;139.738;2022-12-26T04:08:09;12.90;26.50
9414;DHT22;4746;35.664;139.738;2022-12-26T04:11:01;13.20;26.10
9414;DHT22;4746;35.664;139.738;2022-12-26T04:14:10;13.30;24.80
9414;DHT22;4746;35.664;139.738;2022-12-26T04:21:11;13.20;24.10
9414;DHT22;4746;35.664;139.738;2022-12-26T04:24:17;13.20;23.60
9414;DHT22;4746;35.664;139.738;2022-12-26T04:27:09;13.40;23.60
9414;DHT22;4746;35.664;139.738;2022-12-26T04:29:58;13.30;23.50
9414;DHT22;4746;35.664;139.738;2022-12-26T04:32:48;13.30;23.50
9414;DHT22;4746;35.664;139.738;2022-12-26T04:35:49;13.60;23.60
9414;DHT22;4746;35.664;139.738;2022-12-26T04:38:46;13.70;23.30
9414;DHT22;4746;35.664;139.738;2022-12-26T04:41:38;13.70;23.00
9414;DHT22;4746;35.664;139.738;2022-12-26T04:44:26;13.60;22.80
9414;DHT22;4746;35.664;139.738;2022-12-26T04:46:56;13.50;22.40
9414;DHT22;4746;35.664;139.738;2022-12-26T04:49:23;13.70;22.90
9414;DHT22;4746;35.664;139.738;2022-12-26T04:52:12;13.70;22.70
9414;DHT22;4746;35.664;139.738;2022-12-26T04:54:41;13.60;22.50
9414;DHT22;4746;35.664;139.738;2022-12-26T04:57:10;13.70;22.70
9414;DHT22;4746;35.664;139.738;2022-12-26T04:59:38;13.60;22.60
9414;DHT22;4746;35.664;139.738;2022-12-26T05:02:05;13.60;22.50
9414;DHT22;4746;35.664;139.738;2022-12-26T05:04:52;14.00;22.60
9414;DHT22;4746;35.664;139.738;2022-12-26T05:07:37;14.30;22.70
9414;DHT22;4746;35.664;139.738;2022-12-26T05:10:25;14.20;23.10
9414;DHT22;4746;35.664;139.738;2022-12-26T05:12:54;14.60;23.40
9414;DHT22;4746;35.664;139.738;2022-12-26T05:15:22;14.80;23.00
9414;DHT22;4746;35.664;139.738;2022-12-26T05:17:49;14.80;23.20
9414;DHT22;4746;35.664;139.738;2022-12-26T05:20:37;14.70;23.20
9414;DHT22;4746;35.664;139.738;2022-12-26T05:23:17;14.60;22.90
9414;DHT22;4746;35.664;139.738;2022-12-26T05:26:14;14.50;23.50
9414;DHT22;4746;35.664;139.738;2022-12-26T05:29:03;14.60;23.70
9414;DHT22;4746;35.664;139.738;2022-12-26T05:31:31;14.60;23.70
9414;DHT22;4746;35.664;139.738;2022-12-26T05:33:59;14.50;23.60
9414;DHT22;4746;35.664;139.738;2022-12-26T05:36:46;14.80;23.50
9414;DHT22;4746;35.664;139.738;2022-12-26T05:39:17;14.80;22.70
9414;DHT22;4746;35.664;139.738;2022-12-26T05:41:45;15.10;22.80
9414;DHT22;4746;35.664;139.738;2022-12-26T05:44:12;15.10;22.30
9414;DHT22;4746;35.664;139.738;2022-12-26T05:46:40;15.10;22.20
9414;DHT22;4746;35.664;139.738;2022-12-26T05:49:08;15.10;22.00
9414;DHT22;4746;35.664;139.738;2022-12-26T05:51:35;15.30;22.00
9414;DHT22;4746;35.664;139.738;2022-12-26T05:54:03;15.50;21.70
9414;DHT22;4746;35.664;139.738;2022-12-26T05:56:31;15.40;21.30
9414;DHT22;4746;35.664;139.738;2022-12-26T05:59:00;15.20;21.10
9414;DHT22;4746;35.664;139.738;2022-12-26T06:01:29;15.20;21.20
9414;DHT22;4746;35.664;139.738;2022-12-26T06:03:58;15.10;21.30
9414;DHT22;4746;35.664;139.738;2022-12-26T06:06:27;15.30;21.30
9414;DHT22;4746;35.664;139.738;2022-12-26T06:08:56;15.10;21.30
9414;DHT22;4746;35.664;139.738;2022-12-26T06:11:24;15.20;21.40
9414;DHT22;4746;35.664;139.738;2022-12-26T06:13:52;15.30;21.50
9414;DHT22;4746;35.664;139.738;2022-12-26T06:16:21;15.60;21.60
9414;DHT22;4746;35.664;139.738;2022-12-26T06:18:49;15.60;21.40
9414;DHT22;4746;35.664;139.738;2022-12-26T06:21:18;15.50;21.50
9414;DHT22;4746;35.664;139.738;2022-12-26T06:23:49;15.50;21.50
9414;DHT22;4746;35.664;139.738;2022-12-26T06:26:17;15.60;21.50
9414;DHT22;4746;35.664;139.738;2022-12-26T06:28:44;15.50;21.40
9414;DHT22;4746;35.664;139.738;2022-12-26T06:31:16;15.30;21.30
9414;DHT22;4746;35.664;139.738;2022-12-26T06:33:47;15.20;21.50
9414;DHT22;4746;35.664;139.738;2022-12-26T06:36:19;15.10;21.60
9414;DHT22;4746;35.664;139.738;2022-12-26T06:38:49;14.90;21.80
9414;DHT22;4746;35.664;139.738;2022-12-26T06:41:19;15.00;21.90
9414;DHT22;4746;35.664;139.738;2022-12-26T06:43:48;15.10;22.30
9414;DHT22;4746;35.664;139.738;2022-12-26T06:46:19;15.10;22.90
9414;DHT22;4746;35.664;139.738;2022-12-26T06:48:49;15.00;23.30
9414;DHT22;4746;35.664;139.738;2022-12-26T06:51:26;14.80;23.40
9414;DHT22;4746;35.664;139.738;2022-12-26T06:53:54;14.30;23.60
9414;DHT22;4746;35.664;139.738;2022-12-26T06:56:24;14.20;24.00
9414;DHT22;4746;35.664;139.738;2022-12-26T06:58:57;14.30;24.40
9414;DHT22;4746;35.664;139.738;2022-12-26T07:01:28;14.00;24.50
9414;DHT22;4746;35.664;139.738;2022-12-26T07:03:58;13.70;24.60
9414;DHT22;4746;35.664;139.738;2022-12-26T07:06:30;13.60;24.80
9414;DHT22;4746;35.664;139.738;2022-12-26T07:09:06;13.30;25.40
9414;DHT22;4746;35.664;139.738;2022-12-26T07:11:38;13.00;25.10
9414;DHT22;4746;35.664;139.738;2022-12-26T07:14:08;13.00;25.50
9414;DHT22;4746;35.664;139.738;2022-12-26T07:16:37;12.70;25.70
9414;DHT22;4746;35.664;139.738;2022-12-26T07:19:06;12.70;25.90
9414;DHT22;4746;35.664;139.738;2022-12-26T07:21:35;12.50;26.10
9414;DHT22;4746;35.664;139.738;2022-12-26T07:24:03;12.30;26.20
9414;DHT22;4746;35.664;139.738;2022-12-26T07:26:31;12.20;26.40
9414;DHT22;4746;35.664;139.738;2022-12-26T07:28:59;12.00;26.50
9414;DHT22;4746;35.664;139.738;2022-12-26T07:31:26;11.80;26.70
9414;DHT22;4746;35.664;139.738;2022-12-26T07:33:55;11.30;26.70
9414;DHT22;4746;35.664;139.738;2022-12-26T07:36:23;11.10;27.10
9414;DHT22;4746;35.664;139.738;2022-12-26T07:38:51;10.80;27.50
9414;DHT22;4746;35.664;139.738;2022-12-26T07:41:18;10.60;28.00
9414;DHT22;4746;35.664;139.738;2022-12-26T07:44:04;10.40;28.30
9414;DHT22;4746;35.664;139.738;2022-12-26T07:46:33;10.20;28.60
9414;DHT22;4746;35.664;139.738;2022-12-26T07:49:01;10.00;29.00
9414;DHT22;4746;35.664;139.738;2022-12-26T07:51:29;9.90;30.00
9414;DHT22;4746;35.664;139.738;2022-12-26T07:53:57;9.80;30.10
9414;DHT22;4746;35.664;139.738;2022-12-26T07:56:24;9.60;30.50
9414;DHT22;4746;35.664;139.738;2022-12-26T07:58:52;9.50;31.10
9414;DHT22;4746;35.664;139.738;2022-12-26T08:01:19;9.50;31.60
9414;DHT22;4746;35.664;139.738;2022-12-26T08:03:48;9.30;32.50
9414;DHT22;4746;35.664;139.738;2022-12-26T08:06:17;9.20;32.00
9414;DHT22;4746;35.664;139.738;2022-12-26T08:08:46;9.10;32.30
9414;DHT22;4746;35.664;139.738;2022-12-26T08:11:16;9.10;32.50
9414;DHT22;4746;35.664;139.738;2022-12-26T08:13:46;9.00;32.90
9414;DHT22;4746;35.664;139.738;2022-12-26T08:16:14;8.90;33.40
9414;DHT22;4746;35.664;139.738;2022-12-26T08:18:43;8.90;33.00
9414;DHT22;4746;35.664;139.738;2022-12-26T08:21:11;8.80;33.10
9414;DHT22;4746;35.664;139.738;2022-12-26T08:23:39;8.80;33.20
9414;DHT22;4746;35.664;139.738;2022-12-26T08:26:08;8.80;33.50
9414;DHT22;4746;35.664;139.738;2022-12-26T08:28:38;8.70;33.70
9414;DHT22;4746;35.664;139.738;2022-12-26T08:31:11;8.70;33.80
9414;DHT22;4746;35.664;139.738;2022-12-26T08:33:39;8.60;34.10
9414;DHT22;4746;35.664;139.738;2022-12-26T08:36:09;8.60;34.20
9414;DHT22;4746;35.664;139.738;2022-12-26T08:38:39;8.50;34.20
9414;DHT22;4746;35.664;139.738;2022-12-26T08:41:07;8.50;34.40
9414;DHT22;4746;35.664;139.738;2022-12-26T08:43:35;8.50;34.50
9414;DHT22;4746;35.664;139.738;2022-12-26T08:46:08;8.50;34.70
9414;DHT22;4746;35.664;139.738;2022-12-26T08:48:38;8.50;34.80
9414;DHT22;4746;35.664;139.738;2022-12-26T08:51:12;8.50;34.90
9414;DHT22;4746;35.664;139.738;2022-12-26T08:53:42;8.40;34.60
9414;DHT22;4746;35.664;139.738;2022-12-26T08:56:13;8.40;34.70
9414;DHT22;4746;35.664;139.738;2022-12-26T08:58:47;8.30;34.70
9414;DHT22;4746;35.664;139.738;2022-12-26T09:01:19;8.30;34.70
9414;DHT22;4746;35.664;139.738;2022-12-26T09:03:52;8.30;34.80
9414;DHT22;4746;35.664;139.738;2022-12-26T09:06:21;8.20;34.80
9414;DHT22;4746;35.664;139.738;2022-12-26T09:08:49;8.20;35.00
9414;DHT22;4746;35.664;139.738;2022-12-26T09:11:24;8.20;35.20
9414;DHT22;4746;35.664;139.738;2022-12-26T09:13:56;8.20;35.30
9414;DHT22;4746;35.664;139.738;2022-12-26T09:16:34;8.10;35.40
9414;DHT22;4746;35.664;139.738;2022-12-26T09:19:10;8.10;35.60
9414;DHT22;4746;35.664;139.738;2022-12-26T09:21:39;8.10;35.70
9414;DHT22;4746;35.664;139.738;2022-12-26T09:24:11;8.10;36.00
9414;DHT22;4746;35.664;139.738;2022-12-26T09:26:41;8.10;36.10
9414;DHT22;4746;35.664;139.738;2022-12-26T09:29:10;8.10;36.30
9414;DHT22;4746;35.664;139.738;2022-12-26T09:31:38;8.10;36.80
9414;DHT22;4746;35.664;139.738;2022-12-26T09:34:07;8.10;37.20
9414;DHT22;4746;35.664;139.738;2022-12-26T09:36:37;8.10;37.50
9414;DHT22;4746;35.664;139.738;2022-12-26T09:39:05;8.20;37.80
9414;DHT22;4746;35.664;139.738;2022-12-26T09:48:14;8.50;38.40
9414;DHT22;4746;35.664;139.738;2022-12-26T09:50:50;8.50;38.50
9414;DHT22;4746;35.664;139.738;2022-12-26T09:53:34;8.50;38.50
9414;DHT22;4746;35.664;139.738;2022-12-26T09:56:12;8.40;38.60
9414;DHT22;4746;35.664;139.738;2022-12-26T09:58:59;8.40;39.10
9414;DHT22;4746;35.664;139.738;2022-12-26T10:01:34;8.30;39.20
9414;DHT22;4746;35.664;139.738;2022-12-26T10:04:25;8.20;39.10
9414;DHT22;4746;35.664;139.738;2022-12-26T10:07:06;8.20;39.50
9414;DHT22;4746;35.664;139.738;2022-12-26T10:12:59;8.20;40.00
9414;DHT22;4746;35.664;139.738;2022-12-26T10:16:23;8.10;40.20
9414;DHT22;4746;35.664;139.738;2022-12-26T10:25:19;7.90;41.50
9414;DHT22;4746;35.664;139.738;2022-12-26T10:27:54;7.90;41.70
9414;DHT22;4746;35.664;139.738;2022-12-26T10:30:38;7.80;41.60
9414;DHT22;4746;35.664;139.738;2022-12-26T10:33:22;7.80;41.60
9414;DHT22;4746;35.664;139.738;2022-12-26T10:35:59;7.70;41.80
9414;DHT22;4746;35.664;139.738;2022-12-26T10:38:40;7.60;42.00
9414;DHT22;4746;35.664;139.738;2022-12-26T10:41:23;7.50;42.10
9414;DHT22;4746;35.664;139.738;2022-12-26T10:43:54;7.50;42.70
9414;DHT22;4746;35.664;139.738;2022-12-26T10:48:53;7.50;42.70
9414;DHT22;4746;35.664;139.738;2022-12-26T10:51:21;7.50;42.80
9414;DHT22;4746;35.664;139.738;2022-12-26T10:53:51;7.50;42.70
9414;DHT22;4746;35.664;139.738;2022-12-26T10:56:21;7.40;42.80
9414;DHT22;4746;35.664;139.738;2022-12-26T10:59:02;7.40;42.90
9414;DHT22;4746;35.664;139.738;2022-12-26T11:01:34;7.40;43.10
9414;DHT22;4746;35.664;139.738;2022-12-26T11:04:08;7.30;43.20
9414;DHT22;4746;35.664;139.738;2022-12-26T11:06:43;7.30;43.50
9414;DHT22;4746;35.664;139.738;2022-12-26T11:09:42;7.30;43.70
9414;DHT22;4746;35.664;139.738;2022-12-26T11:15:36;7.30;43.80
9414;DHT22;4746;35.664;139.738;2022-12-26T11:18:32;7.20;43.70
9414;DHT22;4746;35.664;139.738;2022-12-26T11:23:46;7.20;44.30
9414;DHT22;4746;35.664;139.738;2022-12-26T11:26:26;7.10;44.00
9414;DHT22;4746;35.664;139.738;2022-12-26T11:29:14;7.10;44.20
9414;DHT22;4746;35.664;139.738;2022-12-26T11:31:56;7.00;44.10
9414;DHT22;4746;35.664;139.738;2022-12-26T11:37:39;7.00;44.30
9414;DHT22;4746;35.664;139.738;2022-12-26T11:40:37;6.90;44.50
9414;DHT22;4746;35.664;139.738;2022-12-26T11:43:32;6.90;45.20
9414;DHT22;4746;35.664;139.738;2022-12-26T11:46:00;6.90;45.20
9414;DHT22;4746;35.664;139.738;2022-12-26T11:48:28;6.80;45.60
9414;DHT22;4746;35.664;139.738;2022-12-26T11:50:56;6.80;45.60
9414;DHT22;4746;35.664;139.738;2022-12-26T11:53:24;6.80;45.50
9414;DHT22;4746;35.664;139.738;2022-12-26T11:56:03;6.80;45.50
9414;DHT22;4746;35.664;139.738;2022-12-26T11:58:35;6.80;45.10
9414;DHT22;4746;35.664;139.738;2022-12-26T12:01:09;6.80;45.30
9414;DHT22;4746;35.664;139.738;2022-12-26T12:03:46;6.90;45.60
9414;DHT22;4746;35.664;139.738;2022-12-26T12:11:51;6.90;45.50
9414;DHT22;4746;35.664;139.738;2022-12-26T12:20:54;6.80;45.70
9414;DHT22;4746;35.664;139.738;2022-12-26T12:24:00;6.80;45.90
9414;DHT22;4746;35.664;139.738;2022-12-26T12:27:04;6.80;45.60
9414;DHT22;4746;35.664;139.738;2022-12-26T12:33:29;6.80;45.50
9414;DHT22;4746;35.664;139.738;2022-12-26T12:42:28;6.80;45.70
9414;DHT22;4746;35.664;139.738;2022-12-26T12:45:32;6.80;45.60
9414;DHT22;4746;35.664;139.738;2022-12-26T12:51:32;6.70;45.30
9414;DHT22;4746;35.664;139.738;2022-12-26T13:00:37;6.70;45.20
9414;DHT22;4746;35.664;139.738;2022-12-26T13:11:39;6.60;44.90
9414;DHT22;4746;35.664;139.738;2022-12-26T13:14:46;6.60;44.70
9414;DHT22;4746;35.664;139.738;2022-12-26T13:20:21;6.60;44.70
9414;DHT22;4746;35.664;139.738;2022-12-26T13:23:26;6.60;44.20
9414;DHT22;4746;35.664;139.738;2022-12-26T13:26:40;6.50;44.20
9414;DHT22;4746;35.664;139.738;2022-12-26T13:29:38;6.60;43.90
9414;DHT22;4746;35.664;139.738;2022-12-26T13:32:37;6.50;44.00
9414;DHT22;4746;35.664;139.738;2022-12-26T13:35:05;6.60;43.10
9414;DHT22;4746;35.664;139.738;2022-12-26T13:40:15;6.60;42.70
9414;DHT22;4746;35.664;139.738;2022-12-26T13:43:07;6.60;43.00
9414;DHT22;4746;35.664;139.738;2022-12-26T13:46:00;6.60;43.50
9414;DHT22;4746;35.664;139.738;2022-12-26T13:51:00;6.60;43.30
9414;DHT22;4746;35.664;139.738;2022-12-26T13:53:34;6.60;43.40
9414;DHT22;4746;35.664;139.738;2022-12-26T14:13:03;6.40;43.90
9414;DHT22;4746;35.664;139.738;2022-12-26T14:16:17;6.40;43.80
9414;DHT22;4746;35.664;139.738;2022-12-26T14:22:23;6.40;43.40
9414;DHT22;4746;35.664;139.738;2022-12-26T14:28:09;6.40;43.20
9414;DHT22;4746;35.664;139.738;2022-12-26T14:30:55;6.40;43.40
9414;DHT22;4746;35.664;139.738;2022-12-26T14:40:35;6.30;43.20
9414;DHT22;4746;35.664;139.738;2022-12-26T14:45:57;6.30;43.90
9414;DHT22;4746;35.664;139.738;2022-12-26T14:53:34;6.20;43.40
9414;DHT22;4746;35.664;139.738;2022-12-26T14:58:44;6.20;42.50
9414;DHT22;4746;35.664;139.738;2022-12-26T15:13:30;6.20;43.50
9414;DHT22;4746;35.664;139.738;2022-12-26T15:40:26;5.80;46.30
9414;DHT22;4746;35.664;139.738;2022-12-26T15:46:35;5.80;46.20
9414;DHT22;4746;35.664;139.738;2022-12-26T16:00:24;5.80;46.30
9414;DHT22;4746;35.664;139.738;2022-12-26T16:08:29;5.70;46.00
9414;DHT22;4746;35.664;139.738;2022-12-26T16:11:17;5.70;46.00
9414;DHT22;4746;35.664;139.738;2022-12-26T16:14:01;5.70;45.80
9414;DHT22;4746;35.664;139.738;2022-12-26T16:19:17;5.70;45.70
9414;DHT22;4746;35.664;139.738;2022-12-26T16:22:06;5.70;45.70
9414;DHT22;4746;35.664;139.738;2022-12-26T16:25:00;5.70;45.90
9414;DHT22;4746;35.664;139.738;2022-12-26T16:27:29;5.70;46.00
9414;DHT22;4746;35.664;139.738;2022-12-26T16:30:04;5.70;45.80
9414;DHT22;4746;35.664;139.738;2022-12-26T16:32:38;5.70;46.10
9414;DHT22;4746;35.664;139.738;2022-12-26T16:35:23;5.70;45.90
9414;DHT22;4746;35.664;139.738;2022-12-26T16:37:58;5.70;46.40
9414;DHT22;4746;35.664;139.738;2022-12-26T16:40:33;5.60;46.20
9414;DHT22;4746;35.664;139.738;2022-12-26T16:45:52;5.60;47.10
9414;DHT22;4746;35.664;139.738;2022-12-26T16:48:25;5.60;46.90
9414;DHT22;4746;35.664;139.738;2022-12-26T16:51:01;5.60;47.20
9414;DHT22;4746;35.664;139.738;2022-12-26T16:56:27;5.50;47.10
9414;DHT22;4746;35.664;139.738;2022-12-26T16:59:19;5.50;47.30
9414;DHT22;4746;35.664;139.738;2022-12-26T17:01:51;5.40;47.50
9414;DHT22;4746;35.664;139.738;2022-12-26T17:04:26;5.40;48.10
9414;DHT22;4746;35.664;139.738;2022-12-26T17:07:06;5.40;48.40
9414;DHT22;4746;35.664;139.738;2022-12-26T17:09:42;5.40;48.60
9414;DHT22;4746;35.664;139.738;2022-12-26T17:12:28;5.40;48.40
9414;DHT22;4746;35.664;139.738;2022-12-26T17:15:00;5.40;48.80
9414;DHT22;4746;35.664;139.738;2022-12-26T17:17:35;5.30;49.30
9414;DHT22;4746;35.664;139.738;2022-12-26T17:22:52;5.30;50.60
9414;DHT22;4746;35.664;139.738;2022-12-26T17:25:27;5.30;50.90
9414;DHT22;4746;35.664;139.738;2022-12-26T17:30:47;5.20;52.20
9414;DHT22;4746;35.664;139.738;2022-12-26T17:36:03;5.20;53.20
9414;DHT22;4746;35.664;139.738;2022-12-26T17:38:37;5.20;53.40
9414;DHT22;4746;35.664;139.738;2022-12-26T17:41:06;5.20;53.30
9414;DHT22;4746;35.664;139.738;2022-12-26T17:43:39;5.20;54.10
9414;DHT22;4746;35.664;139.738;2022-12-26T17:46:09;5.20;53.90
9414;DHT22;4746;35.664;139.738;2022-12-26T17:48:41;5.20;54.00
9414;DHT22;4746;35.664;139.738;2022-12-26T17:51:14;5.20;54.50
9414;DHT22;4746;35.664;139.738;2022-12-26T17:53:48;5.20;53.70
9414;DHT22;4746;35.664;139.738;2022-12-26T17:56:19;5.20;54.20
9414;DHT22;4746;35.664;139.738;2022-12-26T17:58:50;5.30;53.80
9414;DHT22;4746;35.664;139.738;2022-12-26T18:01:19;5.20;53.80
9414;DHT22;4746;35.664;139.738;2022-12-26T18:03:46;5.30;54.00
9414;DHT22;4746;35.664;139.738;2022-12-26T18:06:15;5.30;54.50
9414;DHT22;4746;35.664;139.738;2022-12-26T18:08:44;5.30;55.10
9414;DHT22;4746;35.664;139.738;2022-12-26T18:11:13;5.20;54.50
9414;DHT22;4746;35.664;139.738;2022-12-26T18:13:41;5.30;54.70
9414;DHT22;4746;35.664;139.738;2022-12-26T18:16:19;5.30;56.60
9414;DHT22;4746;35.664;139.738;2022-12-26T18:18:50;5.30;56.00
9414;DHT22;4746;35.664;139.738;2022-12-26T18:21:17;5.20;56.90
9414;DHT22;4746;35.664;139.738;2022-12-26T18:23:45;5.20;56.80
9414;DHT22;4746;35.664;139.738;2022-12-26T18:26:28;5.20;58.90
9414;DHT22;4746;35.664;139.738;2022-12-26T18:28:57;5.20;58.70
9414;DHT22;4746;35.664;139.738;2022-12-26T18:31:25;5.20;58.90
9414;DHT22;4746;35.664;139.738;2022-12-26T18:33:54;5.20;60.80
9414;DHT22;4746;35.664;139.738;2022-12-26T18:36:26;5.10;60.70
9414;DHT22;4746;35.664;139.738;2022-12-26T18:38:56;5.10;60.20
9414;DHT22;4746;35.664;139.738;2022-12-26T18:41:24;5.20;62.40
9414;DHT22;4746;35.664;139.738;2022-12-26T18:43:52;5.20;62.80
9414;DHT22;4746;35.664;139.738;2022-12-26T18:46:23;5.30;63.00
9414;DHT22;4746;35.664;139.738;2022-12-26T18:48:53;5.30;60.50
9414;DHT22;4746;35.664;139.738;2022-12-26T18:51:24;5.30;59.80
9414;DHT22;4746;35.664;139.738;2022-12-26T18:53:53;5.40;63.20
9414;DHT22;4746;35.664;139.738;2022-12-26T18:56:21;5.40;60.10
9414;DHT22;4746;35.664;139.738;2022-12-26T18:58:50;5.40;59.80
9414;DHT22;4746;35.664;139.738;2022-12-26T19:01:18;5.50;58.60
9414;DHT22;4746;35.664;139.738;2022-12-26T19:03:46;5.40;61.70
9414;DHT22;4746;35.664;139.738;2022-12-26T19:06:26;5.50;61.80
9414;DHT22;4746;35.664;139.738;2022-12-26T19:08:55;5.40;63.30
9414;DHT22;4746;35.664;139.738;2022-12-26T19:11:24;5.40;63.90
9414;DHT22;4746;35.664;139.738;2022-12-26T19:13:51;5.40;65.80
9414;DHT22;4746;35.664;139.738;2022-12-26T19:16:19;5.40;59.80
9414;DHT22;4746;35.664;139.738;2022-12-26T19:18:48;5.30;59.10
9414;DHT22;4746;35.664;139.738;2022-12-26T19:21:16;5.30;61.60
9414;DHT22;4746;35.664;139.738;2022-12-26T19:23:46;5.30;60.30
9414;DHT22;4746;35.664;139.738;2022-12-26T19:26:16;5.20;67.10
9414;DHT22;4746;35.664;139.738;2022-12-26T19:28:53;5.20;67.60
9414;DHT22;4746;35.664;139.738;2022-12-26T19:31:22;5.20;77.50
9414;DHT22;4746;35.664;139.738;2022-12-26T19:33:50;5.20;78.10
9414;DHT22;4746;35.664;139.738;2022-12-26T19:36:17;5.20;72.60
9414;DHT22;4746;35.664;139.738;2022-12-26T19:38:45;5.20;78.30
9414;DHT22;4746;35.664;139.738;2022-12-26T19:41:13;5.20;79.50
9414;DHT22;4746;35.664;139.738;2022-12-26T19:43:41;5.20;82.60
9414;DHT22;4746;35.664;139.738;2022-12-26T19:46:11;5.10;84.00
9414;DHT22;4746;35.664;139.738;2022-12-26T19:48:43;5.10;86.40
9414;DHT22;4746;35.664;139.738;2022-12-26T19:51:12;5.00;81.10
9414;DHT22;4746;35.664;139.738;2022-12-26T19:53:42;5.00;80.20
9414;DHT22;4746;35.664;139.738;2022-12-26T19:56:12;5.00;85.30
9414;DHT22;4746;35.664;139.738;2022-12-26T19:58:41;4.90;91.20
9414;DHT22;4746;35.664;139.738;2022-12-26T20:01:21;4.90;87.60
9414;DHT22;4746;35.664;139.738;2022-12-26T20:03:54;4.80;87.50
9414;DHT22;4746;35.664;139.738;2022-12-26T20:06:25;4.80;91.10
9414;DHT22;4746;35.664;139.738;2022-12-26T20:08:59;4.70;92.40
9414;DHT22;4746;35.664;139.738;2022-12-26T20:11:35;4.70;92.80
9414;DHT22;4746;35.664;139.738;2022-12-26T20:14:06;4.70;93.00
9414;DHT22;4746;35.664;139.738;2022-12-26T20:16:36;4.60;95.20
9414;DHT22;4746;35.664;139.738;2022-12-26T20:19:04;4.60;96.90
9414;DHT22;4746;35.664;139.738;2022-12-26T20:21:33;4.60;96.40
9414;DHT22;4746;35.664;139.738;2022-12-26T20:24:01;4.70;94.20
9414;DHT22;4746;35.664;139.738;2022-12-26T20:26:29;4.70;98.30
9414;DHT22;4746;35.664;139.738;2022-12-26T20:28:59;4.70;93.70